createdAt,value
2023-04-15T00:01:04.763Z,7.22
2023-04-15T00:03:35.002Z,7.19
2023-04-15T00:06:05.098Z,7.20
2023-04-15T00:08:33.797Z,7.19
2023-04-15T00:11:05.833Z,7.20
2023-04-15T00:13:40.426Z,7.19
2023-04-15T00:16:08.788Z,7.15
2023-04-15T00:18:37.502Z,7.14
2023-04-15T00:21:05.589Z,7.12
2023-04-15T00:23:33.587Z,7.06
2023-04-15T00:26:01.767Z,7.05
2023-04-15T00:28:32.540Z,7.01
2023-04-15T00:31:01.113Z,6.98
2023-04-15T00:33:29.251Z,6.92
2023-04-15T00:35:59.296Z,6.88
2023-04-15T00:38:28.252Z,6.82
2023-04-15T00:40:56.623Z,6.78
2023-04-15T00:43:26.548Z,6.74
2023-04-15T00:45:54.975Z,6.67
2023-04-15T00:48:23.137Z,6.64
2023-04-15T00:50:51.199Z,6.64
2023-04-15T00:53:19.077Z,6.62
2023-04-15T00:55:48.213Z,6.59
2023-04-15T00:58:16.819Z,6.58
2023-04-15T01:00:44.845Z,6.58
2023-04-15T01:03:15.772Z,6.58
2023-04-15T01:05:44.899Z,6.58
2023-04-15T01:08:13.286Z,6.59
2023-04-15T01:10:41.563Z,6.59
2023-04-15T01:13:10.561Z,6.58
2023-04-15T01:15:39.181Z,6.60
2023-04-15T01:18:07.640Z,6.61
2023-04-15T01:20:37.145Z,6.61
2023-04-15T01:23:06.276Z,6.60
2023-04-15T01:25:34.368Z,6.58
2023-04-15T01:28:03.311Z,6.58
2023-04-15T01:30:36.085Z,6.57
2023-04-15T01:33:06.912Z,6.56
2023-04-15T01:35:36.525Z,6.55
2023-04-15T01:38:08.556Z,6.56
2023-04-15T01:40:36.442Z,6.55
2023-04-15T01:43:04.694Z,6.55
2023-04-15T01:45:33.661Z,6.55
2023-04-15T01:48:04.857Z,6.54
2023-04-15T01:50:36.968Z,6.54
2023-04-15T01:53:05.186Z,6.54
2023-04-15T01:55:33.150Z,6.55
2023-04-15T01:58:01.496Z,6.55
2023-04-15T02:00:30.845Z,6.55
2023-04-15T02:02:59.548Z,6.54
2023-04-15T02:05:27.883Z,6.52
2023-04-15T02:07:55.847Z,6.48
2023-04-15T02:10:23.994Z,6.46
2023-04-15T02:12:54.487Z,6.44
2023-04-15T02:15:23.253Z,6.41
2023-04-15T02:17:52.779Z,6.37
2023-04-15T02:20:21.526Z,6.35
2023-04-15T02:22:49.514Z,6.32
2023-04-15T02:25:19.178Z,6.31
2023-04-15T02:27:48.078Z,6.27
2023-04-15T02:30:18.169Z,6.24
2023-04-15T02:32:47.298Z,6.23
2023-04-15T02:35:19.290Z,6.23
2023-04-15T02:37:47.515Z,6.24
2023-04-15T02:40:15.746Z,6.24
2023-04-15T02:42:44.636Z,6.23
2023-04-15T02:45:14.851Z,6.21
2023-04-15T02:47:46.214Z,6.17
2023-04-15T02:50:15.255Z,6.14
2023-04-15T02:52:43.538Z,6.11
2023-04-15T02:55:12.717Z,6.08
2023-04-15T02:57:42.231Z,6.07
2023-04-15T03:00:12.269Z,6.07
2023-04-15T03:02:44.157Z,6.05
2023-04-15T03:05:13.275Z,6.05
2023-04-15T03:07:48.156Z,6.05
2023-04-15T03:10:16.580Z,6.03
2023-04-15T03:12:45.234Z,6.01
2023-04-15T03:15:17.337Z,5.99
2023-04-15T03:17:49.826Z,5.97
2023-04-15T03:20:18.819Z,5.97
2023-04-15T03:22:48.591Z,5.99
2023-04-15T03:25:17.270Z,5.98
2023-04-15T03:27:45.288Z,5.97
2023-04-15T03:30:15.397Z,5.95
2023-04-15T03:32:44.659Z,5.96
2023-04-15T03:35:13.130Z,5.96
2023-04-15T03:37:41.400Z,5.99
2023-04-15T03:40:10.311Z,6.00
2023-04-15T03:42:38.421Z,6.01
2023-04-15T03:45:08.761Z,6.02
2023-04-15T03:47:37.855Z,6.02
2023-04-15T03:50:06.018Z,6.03
2023-04-15T03:52:36.032Z,6.03
2023-04-15T03:55:04.041Z,6.03
2023-04-15T03:57:38.091Z,6.05
2023-04-15T04:00:07.423Z,6.08
2023-04-15T04:02:40.527Z,6.07
2023-04-15T04:05:09.002Z,6.04
2023-04-15T04:07:37.091Z,6.02
2023-04-15T04:10:05.367Z,6.02
2023-04-15T04:12:34.536Z,6.03
2023-04-15T04:15:02.623Z,6.05
2023-04-15T04:17:30.945Z,6.06
2023-04-15T04:19:59.129Z,6.08
2023-04-15T04:22:29.208Z,6.08
2023-04-15T04:24:59.475Z,6.07
2023-04-15T04:27:28.017Z,6.07
2023-04-15T04:29:55.933Z,6.07
2023-04-15T04:32:24.648Z,6.08
2023-04-15T04:34:52.586Z,6.08
2023-04-15T04:37:21.833Z,6.11
2023-04-15T04:39:51.196Z,6.14
2023-04-15T04:42:19.404Z,6.15
2023-04-15T04:44:47.279Z,6.13
2023-04-15T04:47:15.715Z,6.10
2023-04-15T04:49:43.691Z,6.09
2023-04-15T04:52:13.969Z,6.07
2023-04-15T04:54:42.235Z,6.05
2023-04-15T04:57:10.637Z,6.01
2023-04-15T04:59:41.304Z,5.98
2023-04-15T05:02:11.075Z,5.97
2023-04-15T05:04:39.043Z,5.95
2023-04-15T05:07:07.267Z,5.94
2023-04-15T05:09:36.927Z,5.95
2023-04-15T05:12:05.087Z,5.94
2023-04-15T05:14:33.417Z,5.97
2023-04-15T05:17:03.575Z,6.01
2023-04-15T05:19:32.588Z,6.03
2023-04-15T05:22:01.193Z,6.05
2023-04-15T05:24:29.397Z,6.09
2023-04-15T05:26:59.640Z,6.11
2023-04-15T05:29:31.706Z,6.13
2023-04-15T05:31:59.666Z,6.13
2023-04-15T05:34:27.607Z,6.13
2023-04-15T05:36:55.656Z,6.12
2023-04-15T05:39:23.657Z,6.08
2023-04-15T05:41:51.623Z,6.03
2023-04-15T05:44:21.239Z,6.00
2023-04-15T05:46:49.449Z,6.01
2023-04-15T05:49:17.580Z,6.01
2023-04-15T05:51:47.397Z,6.02
2023-04-15T05:54:17.763Z,6.04
2023-04-15T05:56:47.636Z,6.08
2023-04-15T05:59:15.840Z,6.11
2023-04-15T06:01:48.162Z,6.12
2023-04-15T06:04:17.323Z,6.11
2023-04-15T06:06:45.712Z,6.13
2023-04-15T06:09:13.690Z,6.13
2023-04-15T06:11:45.466Z,6.11
2023-04-15T06:14:14.277Z,6.13
2023-04-15T06:16:42.602Z,6.16
2023-04-15T06:19:11.165Z,6.20
2023-04-15T06:21:40.148Z,6.24
2023-04-15T06:24:08.127Z,6.29
2023-04-15T06:26:38.445Z,6.31
2023-04-15T06:29:06.827Z,6.33
2023-04-15T06:31:37.983Z,6.36
2023-04-15T06:34:07.533Z,6.38
2023-04-15T06:36:35.748Z,6.41
2023-04-15T06:39:03.987Z,6.41
2023-04-15T06:41:32.442Z,6.41
2023-04-15T06:44:00.310Z,6.47
2023-04-15T06:46:29.453Z,6.59
2023-04-15T06:48:57.454Z,6.72
2023-04-15T06:51:26.768Z,6.77
2023-04-15T06:53:55.933Z,6.76
2023-04-15T06:56:23.904Z,6.73
2023-04-15T06:58:52.093Z,6.75
2023-04-15T07:01:20.169Z,6.75
2023-04-15T07:03:49.627Z,6.74
2023-04-15T07:06:18.184Z,6.73
2023-04-15T07:08:46.465Z,6.70
2023-04-15T07:11:14.666Z,6.64
2023-04-15T07:13:42.618Z,6.60
2023-04-15T07:16:12.124Z,6.53
2023-04-15T07:18:40.211Z,6.47
2023-04-15T07:21:08.586Z,6.47
2023-04-15T07:23:36.524Z,6.47
2023-04-15T07:26:05.724Z,6.50
2023-04-15T07:28:33.691Z,6.49
2023-04-15T07:31:04.809Z,6.49
2023-04-15T07:33:39.256Z,6.46
2023-04-15T07:36:08.264Z,6.44
2023-04-15T07:38:36.800Z,6.41
2023-04-15T07:41:09.662Z,6.40
2023-04-15T07:43:41.505Z,6.39
2023-04-15T07:46:09.608Z,6.39
2023-04-15T07:48:38.111Z,6.39
2023-04-15T07:51:06.397Z,6.43
2023-04-15T07:53:34.944Z,6.48
2023-04-15T07:56:02.944Z,6.55
2023-04-15T07:58:31.610Z,6.64
2023-04-15T08:01:02.154Z,6.72
2023-04-15T08:03:30.482Z,6.77
2023-04-15T08:05:58.962Z,6.79
2023-04-15T08:08:27.691Z,6.80
2023-04-15T08:10:56.672Z,6.76
2023-04-15T08:13:31.123Z,6.77
2023-04-15T08:16:38.374Z,6.82
2023-04-15T08:19:07.692Z,6.90
2023-04-15T08:21:36.886Z,6.96
2023-04-15T08:24:05.220Z,6.92
2023-04-15T08:26:43.427Z,6.82
2023-04-15T08:29:12.916Z,6.79
2023-04-15T08:31:41.200Z,6.78
2023-04-15T08:34:11.831Z,6.79
2023-04-15T08:36:42.913Z,6.79
2023-04-15T08:39:14.457Z,6.78
2023-04-15T08:41:51.958Z,6.78
2023-04-15T08:44:21.708Z,6.78
2023-04-15T08:46:52.224Z,6.77
2023-04-15T08:49:20.262Z,6.83
2023-04-15T08:51:50.850Z,6.89
2023-04-15T08:54:23.554Z,6.91
2023-04-15T08:56:53.878Z,6.91
2023-04-15T08:59:22.608Z,6.91
2023-04-15T09:01:51.472Z,6.90
2023-04-15T09:04:19.662Z,6.87
2023-04-15T09:06:48.588Z,6.80
2023-04-15T09:09:16.874Z,6.72
2023-04-15T09:11:45.557Z,6.65
2023-04-15T09:14:13.631Z,6.59
2023-04-15T09:16:58.907Z,6.53
2023-04-15T09:19:27.278Z,6.52
2023-04-15T09:21:58.964Z,6.51
2023-04-15T09:24:33.940Z,6.50
2023-04-15T09:27:02.587Z,6.53
2023-04-15T09:29:31.630Z,6.57
2023-04-15T09:32:12.608Z,6.63
2023-04-15T09:34:41.438Z,6.72
2023-04-15T09:37:11.161Z,6.76
2023-04-15T09:39:50.205Z,6.80
2023-04-15T09:42:24.479Z,6.81
2023-04-15T09:44:55.447Z,6.78
2023-04-15T09:47:30.115Z,6.78
2023-04-15T09:50:01.814Z,6.74
2023-04-15T09:52:30.422Z,6.67
2023-04-15T09:54:58.913Z,6.65
2023-04-15T09:57:34.310Z,6.65
2023-04-15T10:00:09.069Z,6.62
2023-04-15T10:02:40.114Z,6.59
2023-04-15T10:05:10.429Z,6.58
2023-04-15T10:07:43.621Z,6.58
2023-04-15T10:10:11.625Z,6.55
2023-04-15T10:12:40.493Z,6.54
2023-04-15T10:15:09.250Z,6.57
2023-04-15T10:17:37.681Z,6.59
2023-04-15T10:20:07.159Z,6.63
2023-04-15T10:22:35.185Z,6.66
2023-04-15T10:25:07.318Z,6.69
2023-04-15T10:27:35.335Z,6.71
2023-04-15T10:30:03.952Z,6.73
2023-04-15T10:32:32.398Z,6.77
2023-04-15T10:35:04.913Z,6.84
2023-04-15T10:37:37.589Z,6.89
2023-04-15T10:40:24.310Z,6.89
2023-04-15T10:42:52.255Z,6.86
2023-04-15T10:45:20.327Z,6.83
2023-04-15T10:47:58.496Z,6.79
2023-04-15T10:50:28.396Z,6.74
2023-04-15T10:52:56.555Z,6.73
2023-04-15T10:55:25.292Z,6.72
2023-04-15T10:57:54.202Z,6.70
2023-04-15T11:00:24.932Z,6.69
2023-04-15T11:03:06.717Z,6.64
2023-04-15T11:05:41.907Z,6.60
2023-04-15T11:08:10.459Z,6.58
2023-04-15T11:10:39.021Z,6.59
2023-04-15T11:13:09.755Z,6.60
2023-04-15T11:18:33.060Z,6.66
2023-04-15T11:21:02.403Z,6.72
2023-04-15T11:23:40.093Z,6.78
2023-04-15T11:26:12.302Z,6.80
2023-04-15T11:28:41.552Z,6.78
2023-04-15T11:31:10.938Z,6.79
2023-04-15T11:33:44.907Z,6.76
2023-04-15T11:36:13.900Z,6.73
2023-04-15T11:38:43.144Z,6.68
2023-04-15T11:41:11.424Z,6.63
2023-04-15T11:43:42.446Z,6.57
2023-04-15T11:46:11.448Z,6.56
2023-04-15T11:48:42.105Z,6.56
2023-04-15T11:51:10.132Z,6.55
2023-04-15T11:53:46.246Z,6.57
2023-04-15T11:56:21.191Z,6.59
2023-04-15T11:58:50.995Z,6.60
2023-04-15T12:01:22.168Z,6.55
2023-04-15T12:03:50.681Z,6.56
2023-04-15T12:06:19.806Z,6.56
2023-04-15T12:08:56.094Z,6.53
2023-04-15T12:11:31.452Z,6.53
2023-04-15T12:14:01.136Z,6.52
2023-04-15T12:16:29.235Z,6.53
2023-04-15T12:18:57.911Z,6.54
2023-04-15T12:21:26.646Z,6.54
2023-04-15T12:23:57.838Z,6.54
2023-04-15T12:26:27.561Z,6.52
2023-04-15T12:28:56.560Z,6.50
2023-04-15T12:31:24.508Z,6.49
2023-04-15T12:33:52.975Z,6.48
2023-04-15T12:36:21.011Z,6.49
2023-04-15T12:38:49.330Z,6.46
2023-04-15T12:41:17.527Z,6.46
2023-04-15T12:43:46.822Z,6.47
2023-04-15T12:46:15.865Z,6.47
2023-04-15T12:48:44.061Z,6.47
2023-04-15T12:51:11.942Z,6.48
2023-04-15T12:53:40.617Z,6.46
2023-04-15T12:56:08.483Z,6.48
2023-04-15T12:58:37.318Z,6.49
2023-04-15T13:01:06.712Z,6.49
2023-04-15T13:03:34.699Z,6.47
2023-04-15T13:06:04.861Z,6.48
2023-04-15T13:08:32.957Z,6.49
2023-04-15T13:11:01.087Z,6.52
2023-04-15T13:13:29.416Z,6.56
2023-04-15T13:16:01.084Z,6.58
2023-04-15T13:18:31.227Z,6.58
2023-04-15T13:20:59.512Z,6.58
2023-04-15T13:23:27.687Z,6.60
2023-04-15T13:25:56.191Z,6.61
2023-04-15T13:28:24.153Z,6.59
2023-04-15T13:30:52.144Z,6.58
2023-04-15T13:33:20.990Z,6.58
2023-04-15T13:35:48.916Z,6.57
2023-04-15T13:38:17.176Z,6.60
2023-04-15T13:40:45.507Z,6.60
2023-04-15T13:43:13.550Z,6.59
2023-04-15T13:45:41.508Z,6.57
2023-04-15T13:48:09.500Z,6.57
2023-04-15T13:50:38.145Z,6.56
2023-04-15T13:53:07.122Z,6.52
2023-04-15T13:55:35.743Z,6.52
2023-04-15T13:58:03.625Z,6.49
2023-04-15T14:00:31.925Z,6.47
2023-04-15T14:02:59.996Z,6.45
2023-04-15T14:05:28.048Z,6.43
2023-04-15T14:07:56.113Z,6.45
2023-04-15T14:10:24.528Z,6.47
2023-04-15T14:12:52.616Z,6.47
2023-04-15T14:15:21.337Z,6.48
2023-04-15T14:17:49.488Z,6.49
2023-04-15T14:20:21.172Z,6.47
2023-04-15T14:22:49.046Z,6.48
2023-04-15T14:25:30.518Z,6.50
2023-04-15T14:28:01.706Z,6.48
2023-04-15T14:30:30.137Z,6.47
2023-04-15T14:32:58.939Z,6.44
2023-04-15T14:35:27.502Z,6.44
2023-04-15T14:37:55.933Z,6.43
2023-04-15T14:40:24.292Z,6.43
2023-04-15T14:42:52.643Z,6.40
2023-04-15T14:45:21.112Z,6.39
2023-04-15T14:47:49.058Z,6.41
2023-04-15T14:50:17.218Z,6.42
2023-04-15T14:52:45.499Z,6.41
2023-04-15T14:55:14.707Z,6.42
2023-04-15T14:57:43.022Z,6.42
2023-04-15T15:00:13.741Z,6.42
2023-04-15T15:02:44.594Z,6.41
2023-04-15T15:05:12.882Z,6.42
2023-04-15T15:07:41.270Z,6.43
2023-04-15T15:10:09.469Z,6.44
2023-04-15T15:12:38.120Z,6.45
2023-04-15T15:15:15.734Z,6.44
2023-04-15T15:17:53.982Z,6.43
2023-04-15T15:20:23.199Z,6.45
2023-04-15T15:22:51.543Z,6.46
2023-04-15T15:25:19.716Z,6.44
2023-04-15T15:27:47.874Z,6.43
2023-04-15T15:30:15.871Z,6.42
2023-04-15T15:32:43.868Z,6.41
2023-04-15T15:35:12.083Z,6.39
2023-04-15T15:37:40.030Z,6.34
2023-04-15T15:40:08.481Z,6.29
2023-04-15T15:42:37.856Z,6.26
2023-04-15T15:45:06.121Z,6.23
2023-04-15T15:47:34.143Z,6.20
2023-04-15T15:50:03.112Z,6.17
2023-04-15T15:52:33.196Z,6.14
2023-04-15T15:55:02.109Z,6.12
2023-04-15T15:57:30.797Z,6.10
2023-04-15T16:00:10.530Z,6.09
2023-04-15T16:05:13.474Z,6.06
2023-04-15T16:07:41.567Z,6.08
2023-04-15T16:10:09.668Z,6.12
2023-04-15T16:12:37.799Z,6.11
2023-04-15T16:15:06.949Z,6.11
2023-04-15T16:17:35.162Z,6.10
2023-04-15T16:20:05.713Z,6.09
2023-04-15T16:22:36.987Z,6.08
2023-04-15T16:25:08.052Z,6.07
2023-04-15T16:27:49.914Z,6.07
2023-04-15T16:30:24.750Z,6.06
2023-04-15T16:32:53.069Z,6.04
2023-04-15T16:35:21.235Z,6.04
2023-04-15T16:37:49.175Z,6.02
2023-04-15T16:40:17.745Z,6.00
2023-04-15T16:42:45.723Z,5.96
2023-04-15T16:45:13.897Z,5.92
2023-04-15T16:47:41.898Z,5.86
2023-04-15T16:50:10.595Z,5.84
2023-04-15T16:52:43.549Z,5.81
2023-04-15T16:55:11.448Z,5.78
2023-04-15T16:58:00.908Z,5.77
2023-04-15T17:00:28.587Z,5.74
2023-04-15T17:02:56.763Z,5.73
2023-04-15T17:05:24.965Z,5.74
2023-04-15T17:07:56.240Z,5.74
2023-04-15T17:10:30.615Z,5.74
2023-04-15T17:12:59.190Z,5.72
2023-04-15T17:15:27.422Z,5.71
2023-04-15T17:17:55.629Z,5.68
2023-04-15T17:20:26.654Z,5.68
2023-04-15T17:22:56.012Z,5.65
2023-04-15T17:25:24.325Z,5.63
2023-04-15T17:27:53.281Z,5.60
2023-04-15T17:30:21.596Z,5.59
2023-04-15T17:32:51.548Z,5.58
2023-04-15T17:35:19.806Z,5.57
2023-04-15T17:37:47.755Z,5.56
2023-04-15T17:40:15.713Z,5.56
2023-04-15T17:42:44.163Z,5.56
2023-04-15T17:45:12.169Z,5.56
2023-04-15T17:47:40.569Z,5.55
2023-04-15T17:50:09.057Z,5.55
2023-04-15T17:52:37.184Z,5.56
2023-04-15T17:55:05.532Z,5.56
2023-04-15T17:57:34.596Z,5.55
2023-04-15T18:00:02.633Z,5.57
2023-04-15T18:02:40.830Z,5.56
2023-04-15T18:05:09.269Z,5.54
2023-04-15T18:07:37.288Z,5.53
2023-04-15T18:10:05.987Z,5.53
2023-04-15T18:12:34.164Z,5.50
2023-04-15T18:15:02.433Z,5.48
2023-04-15T18:17:30.831Z,5.47
2023-04-15T18:19:58.772Z,5.47
2023-04-15T18:22:27.060Z,5.45
2023-04-15T18:24:55.331Z,5.45
2023-04-15T18:27:23.378Z,5.44
2023-04-15T18:29:51.299Z,5.43
2023-04-15T18:32:19.340Z,5.43
2023-04-15T18:34:48.469Z,5.43
2023-04-15T18:37:16.956Z,5.43
2023-04-15T18:39:45.469Z,5.42
2023-04-15T18:42:13.347Z,5.42
2023-04-15T18:44:41.257Z,5.41
2023-04-15T18:47:09.326Z,5.41
2023-04-15T18:49:37.306Z,5.40
2023-04-15T18:52:05.293Z,5.42
2023-04-15T18:54:33.506Z,5.43
2023-04-15T18:57:01.647Z,5.43
2023-04-15T18:59:30.864Z,5.42
2023-04-15T19:01:59.641Z,5.41
2023-04-15T19:04:30.747Z,5.40
2023-04-15T19:07:01.995Z,5.41
2023-04-15T19:09:31.308Z,5.42
2023-04-15T19:11:59.626Z,5.42
2023-04-15T19:14:27.724Z,5.43
2023-04-15T19:16:56.331Z,5.44
2023-04-15T19:19:24.466Z,5.44
2023-04-15T19:21:52.801Z,5.46
2023-04-15T19:24:20.932Z,5.48
2023-04-15T19:26:50.477Z,5.49
2023-04-15T19:29:19.093Z,5.49
2023-04-15T19:31:47.108Z,5.51
2023-04-15T19:34:15.450Z,5.52
2023-04-15T19:36:43.622Z,5.52
2023-04-15T19:39:11.772Z,5.52
2023-04-15T19:41:40.426Z,5.53
2023-04-15T19:44:34.530Z,5.53
2023-04-15T19:47:02.564Z,5.52
2023-04-15T19:49:30.746Z,5.52
2023-04-15T19:51:58.657Z,5.52
2023-04-15T19:54:26.623Z,5.52
2023-04-15T19:56:54.824Z,5.53
2023-04-15T19:59:22.792Z,5.54
2023-04-15T20:01:50.831Z,5.53
2023-04-15T20:04:19.431Z,5.54
2023-04-15T20:06:48.112Z,5.56
2023-04-15T20:09:17.309Z,5.58
2023-04-15T20:12:05.676Z,5.58
2023-04-15T20:14:34.441Z,5.57
2023-04-15T20:17:02.364Z,5.57
2023-04-15T20:19:30.425Z,5.58
2023-04-15T20:21:58.337Z,5.57
2023-04-15T20:24:26.461Z,5.58
2023-04-15T20:26:54.554Z,5.58
2023-04-15T20:29:22.576Z,5.58
2023-04-15T20:31:50.541Z,5.57
2023-04-15T20:34:18.703Z,5.57
2023-04-15T20:36:47.268Z,5.58
2023-04-15T20:39:18.991Z,5.58
2023-04-15T20:41:47.206Z,5.58
2023-04-15T20:44:16.093Z,5.59
2023-04-15T20:46:44.055Z,5.59
2023-04-15T20:49:11.953Z,5.59
2023-04-15T20:51:40.049Z,5.59
2023-04-15T20:54:08.137Z,5.61
2023-04-15T20:56:36.460Z,5.60
2023-04-15T20:59:04.648Z,5.60
2023-04-15T21:01:32.961Z,5.61
2023-04-15T21:04:01.265Z,5.63
2023-04-15T21:06:29.623Z,5.65
2023-04-15T21:08:57.525Z,5.65
2023-04-15T21:11:43.174Z,5.66
2023-04-15T21:14:13.571Z,5.67
2023-04-15T21:16:41.753Z,5.67
2023-04-15T21:19:09.779Z,5.68
2023-04-15T21:21:38.098Z,5.69
2023-04-15T21:24:07.885Z,5.70
2023-04-15T21:26:36.391Z,5.71
2023-04-15T21:29:04.766Z,5.71
2023-04-15T21:31:33.640Z,5.72
2023-04-15T21:34:01.601Z,5.73
2023-04-15T21:36:34.309Z,5.73
2023-04-15T21:39:02.417Z,5.74
2023-04-15T21:41:31.273Z,5.75
2023-04-15T21:43:59.269Z,5.78
2023-04-15T21:46:33.158Z,5.78
2023-04-15T21:49:03.790Z,5.78
2023-04-15T21:51:33.128Z,5.80
2023-04-15T21:54:01.217Z,5.80
2023-04-15T21:56:29.309Z,5.80
2023-04-15T21:58:57.375Z,5.82
2023-04-15T22:01:25.489Z,5.83
2023-04-15T22:03:54.171Z,5.84
2023-04-15T22:06:22.285Z,5.83
2023-04-15T22:09:11.335Z,5.85
2023-04-15T22:11:38.380Z,5.87
2023-04-15T22:14:06.246Z,5.88
2023-04-15T22:16:35.036Z,5.90
2023-04-15T22:19:03.011Z,5.90
2023-04-15T22:21:31.904Z,5.90
2023-04-15T22:24:38.776Z,5.91
2023-04-15T22:26:48.053Z,5.90
2023-04-15T22:29:16.520Z,5.90
2023-04-15T22:31:44.577Z,5.92
2023-04-15T22:34:14.868Z,5.92
2023-04-15T22:36:42.761Z,5.90
2023-04-15T22:39:10.929Z,5.92
2023-04-15T22:41:39.048Z,5.92
2023-04-15T22:44:07.064Z,5.90
2023-04-15T22:46:36.554Z,5.90
2023-04-15T22:49:07.080Z,5.91
2023-04-15T22:51:36.172Z,5.90
2023-04-15T22:54:04.189Z,5.90
2023-04-15T22:56:32.422Z,5.91
2023-04-15T22:59:00.542Z,5.93
2023-04-15T23:01:28.681Z,5.94
2023-04-15T23:04:04.984Z,5.95
2023-04-15T23:06:37.387Z,5.95
2023-04-15T23:09:05.302Z,5.96
2023-04-15T23:11:33.641Z,5.95
2023-04-15T23:14:01.671Z,5.95
2023-04-15T23:16:29.876Z,5.95
2023-04-15T23:18:58.052Z,5.97
2023-04-15T23:21:28.141Z,5.98
2023-04-15T23:23:56.072Z,5.98
2023-04-15T23:26:24.476Z,6.00
2023-04-15T23:28:52.479Z,6.02
2023-04-15T23:31:20.381Z,6.02
2023-04-15T23:33:48.427Z,6.04
2023-04-15T23:36:16.304Z,6.03
2023-04-15T23:38:44.630Z,6.04
2023-04-15T23:41:12.796Z,6.05
2023-04-15T23:43:40.808Z,6.07
2023-04-15T23:46:08.821Z,6.08
2023-04-15T23:48:37.504Z,6.09
2023-04-15T23:51:06.063Z,6.10
2023-04-15T23:53:34.718Z,6.11
2023-04-15T23:56:02.693Z,6.11
2023-04-15T23:58:32.248Z,6.12
